createdAt,value
2018-04-07T00:02:29.201Z,5.10
2018-04-07T00:06:35.154Z,4.10
2018-04-07T00:10:41.082Z,4.20
2018-04-07T00:14:48.668Z,4.20
2018-04-07T00:18:55.434Z,3.63
2018-04-07T00:23:01.468Z,3.80
2018-04-07T00:27:07.435Z,3.77
2018-04-07T00:31:13.518Z,3.27
2018-04-07T00:35:19.136Z,3.20
2018-04-07T00:39:26.398Z,3.10
2018-04-07T00:43:32.386Z,3.05
2018-04-07T00:47:38.273Z,2.90
2018-04-07T00:51:44.151Z,3.23
2018-04-07T00:55:50.199Z,3.40
2018-04-07T00:59:56.601Z,2.70
2018-04-07T01:04:02.480Z,2.50
2018-04-07T01:08:08.270Z,2.50
2018-04-07T01:12:14.646Z,2.30
2018-04-07T01:16:21.579Z,2.17
2018-04-07T01:20:27.425Z,2.40
2018-04-07T01:24:34.344Z,2.30
2018-04-07T01:28:41.338Z,2.47
2018-04-07T01:32:47.249Z,2.80
2018-04-07T01:36:53.034Z,2.67
2018-04-07T01:41:00.073Z,2.33
2018-04-07T01:45:06.082Z,2.70
2018-04-07T01:49:11.992Z,3.20
2018-04-07T01:53:18.607Z,3.30
2018-04-07T01:57:24.385Z,2.87
2018-04-07T02:01:30.734Z,2.57
2018-04-07T02:05:36.447Z,2.70
2018-04-07T02:09:42.264Z,3.20
2018-04-07T02:13:48.002Z,3.87
2018-04-07T02:17:55.615Z,3.77
2018-04-07T02:22:01.905Z,3.57
2018-04-07T02:26:08.010Z,3.77
2018-04-07T02:30:14.057Z,31.60
2018-04-07T02:34:20.177Z,3.80
2018-04-07T02:38:25.889Z,11.00
2018-04-07T02:42:33.332Z,6.70
2018-04-07T02:46:39.466Z,9.47
2018-04-07T02:50:48.143Z,3.87
2018-04-07T02:54:54.378Z,4.33
2018-04-07T02:59:00.631Z,4.20
2018-04-07T03:03:06.298Z,3.40
2018-04-07T03:07:11.911Z,3.17
2018-04-07T03:11:17.905Z,3.90
2018-04-07T03:15:23.594Z,3.70
2018-04-07T03:19:30.967Z,3.30
2018-04-07T03:23:36.731Z,4.13
2018-04-07T03:27:42.543Z,4.37
2018-04-07T03:31:48.315Z,4.07
2018-04-07T03:35:55.001Z,4.37
2018-04-07T03:40:00.889Z,3.80
2018-04-07T03:44:08.120Z,17.70
2018-04-07T03:48:14.353Z,15.67
2018-04-07T03:52:20.104Z,3.92
2018-04-07T03:56:26.250Z,5.30
2018-04-07T04:00:33.151Z,3.73
2018-04-07T04:04:39.931Z,4.50
2018-04-07T04:08:46.426Z,3.57
2018-04-07T04:12:52.363Z,3.80
2018-04-07T04:16:58.261Z,5.05
2018-04-07T04:21:05.441Z,4.10
2018-04-07T04:25:11.801Z,3.90
2018-04-07T04:29:18.185Z,4.10
2018-04-07T04:33:25.002Z,4.10
2018-04-07T04:37:30.751Z,4.40
2018-04-07T04:41:37.150Z,3.73
2018-04-07T04:45:44.633Z,4.07
2018-04-07T04:49:51.307Z,3.77
2018-04-07T04:53:57.252Z,4.10
2018-04-07T04:58:04.173Z,4.10
2018-04-07T05:02:10.202Z,5.00
2018-04-07T05:06:17.091Z,6.70
2018-04-07T05:10:23.985Z,23.07
2018-04-07T05:14:32.104Z,65.87
2018-04-07T05:18:39.020Z,109.20
2018-04-07T05:22:45.724Z,82.03
2018-04-07T05:26:52.170Z,72.07
2018-04-07T05:30:58.019Z,49.60
2018-04-07T05:35:04.111Z,25.43
2018-04-07T05:39:11.171Z,13.23
2018-04-07T05:43:16.975Z,8.07
2018-04-07T05:47:24.437Z,6.93
2018-04-07T05:51:31.071Z,6.07
2018-04-07T05:55:37.532Z,6.23
2018-04-07T05:59:44.099Z,6.90
2018-04-07T06:03:50.460Z,5.97
2018-04-07T06:07:57.167Z,5.90
2018-04-07T06:12:03.715Z,5.73
2018-04-07T06:16:10.784Z,6.30
2018-04-07T06:20:16.942Z,10.37
2018-04-07T06:24:23.364Z,5.47
2018-04-07T06:28:29.490Z,4.60
2018-04-07T06:32:35.680Z,4.90
2018-04-07T06:36:41.756Z,4.87
2018-04-07T06:40:47.833Z,5.60
2018-04-07T06:44:56.112Z,6.30
2018-04-07T06:49:04.169Z,6.53
2018-04-07T06:53:11.033Z,6.33
2018-04-07T06:57:17.501Z,6.27
2018-04-07T07:01:23.534Z,5.50
2018-04-07T07:05:29.695Z,5.57
2018-04-07T07:09:36.174Z,5.50
2018-04-07T07:13:42.886Z,6.23
2018-04-07T07:17:49.203Z,5.50
2018-04-07T07:21:57.215Z,5.40
2018-04-07T07:26:05.756Z,5.13
2018-04-07T07:30:12.182Z,5.60
2018-04-07T07:34:19.565Z,5.15
2018-04-07T07:38:26.314Z,5.53
2018-04-07T07:42:32.232Z,5.07
2018-04-07T07:46:38.557Z,5.57
2018-04-07T07:50:46.346Z,5.50
2018-04-07T07:54:52.144Z,5.23
2018-04-07T07:59:02.458Z,4.80
2018-04-07T08:03:09.084Z,4.93
2018-04-07T08:07:14.933Z,5.53
2018-04-07T08:11:20.812Z,5.57
2018-04-07T08:15:26.577Z,5.40
2018-04-07T08:19:32.316Z,5.63
2018-04-07T08:23:37.942Z,6.53
2018-04-07T08:27:44.112Z,5.25
2018-04-07T08:31:50.890Z,5.23
2018-04-07T08:35:57.444Z,4.90
2018-04-07T08:40:03.216Z,5.80
2018-04-07T08:44:09.037Z,5.73
2018-04-07T08:48:14.818Z,5.63
2018-04-07T08:52:22.101Z,6.03
2018-04-07T08:56:28.099Z,6.60
2018-04-07T09:00:34.014Z,6.27
2018-04-07T09:04:39.929Z,5.93
2018-04-07T09:08:46.655Z,6.67
2018-04-07T09:12:52.520Z,6.50
2018-04-07T09:16:58.572Z,7.30
2018-04-07T09:21:05.187Z,6.23
2018-04-07T09:25:11.358Z,6.37
2018-04-07T09:29:18.550Z,5.70
2018-04-07T09:33:24.356Z,6.20
2018-04-07T09:37:30.559Z,6.07
2018-04-07T09:41:36.580Z,6.30
2018-04-07T09:45:42.944Z,6.60
2018-04-07T09:49:48.879Z,6.97
2018-04-07T09:53:56.484Z,7.67
2018-04-07T09:58:02.196Z,6.57
2018-04-07T10:02:08.494Z,5.80
2018-04-07T10:06:14.622Z,6.12
2018-04-07T10:10:20.600Z,6.80
2018-04-07T10:14:26.493Z,6.30
2018-04-07T10:18:32.373Z,5.57
2018-04-07T10:22:38.149Z,6.03
2018-04-07T10:26:44.816Z,6.00
2018-04-07T10:30:52.676Z,6.83
2018-04-07T10:34:59.028Z,5.90
2018-04-07T10:39:08.969Z,6.40
2018-04-07T10:43:14.857Z,5.97
2018-04-07T10:47:20.646Z,7.17
2018-04-07T10:51:26.462Z,6.70
2018-04-07T10:55:33.611Z,7.07
2018-04-07T10:59:39.297Z,6.47
2018-04-07T11:03:45.185Z,6.73
2018-04-07T11:07:51.027Z,6.23
2018-04-07T11:11:56.907Z,6.73
2018-04-07T11:16:02.584Z,6.97
2018-04-07T11:20:09.025Z,5.83
2018-04-07T11:24:14.807Z,6.23
2018-04-07T11:28:20.520Z,6.77
2018-04-07T11:32:26.539Z,7.07
2018-04-07T11:36:32.808Z,6.75
2018-04-07T11:40:38.834Z,6.33
2018-04-07T11:44:44.489Z,6.73
2018-04-07T11:48:51.087Z,6.40
2018-04-07T11:52:56.976Z,6.97
2018-04-07T11:57:04.185Z,6.83
2018-04-07T12:01:10.203Z,7.57
2018-04-07T12:05:15.788Z,8.13
2018-04-07T12:09:21.649Z,7.30
2018-04-07T12:13:27.291Z,6.97
2018-04-07T12:17:33.066Z,6.20
2018-04-07T12:21:39.034Z,7.80
2018-04-07T12:25:44.975Z,7.63
2018-04-07T12:29:50.737Z,7.00
2018-04-07T12:33:58.461Z,6.97
2018-04-07T12:38:04.689Z,7.07
2018-04-07T12:42:10.522Z,7.03
2018-04-07T12:46:16.174Z,7.10
2018-04-07T12:50:21.824Z,6.20
2018-04-07T12:54:28.305Z,7.35
2018-04-07T12:58:34.990Z,8.03
2018-04-07T13:02:40.885Z,7.37
2018-04-07T13:06:46.826Z,7.25
2018-04-07T13:10:52.721Z,7.30
2018-04-07T13:14:58.676Z,6.35
2018-04-07T13:19:04.366Z,7.13
2018-04-07T13:23:10.372Z,7.13
2018-04-07T13:27:16.847Z,7.13
2018-04-07T13:31:23.236Z,8.10
2018-04-07T13:35:29.666Z,8.23
2018-04-07T13:39:36.325Z,7.00
2018-04-07T13:43:42.157Z,8.17
2018-04-07T13:47:48.053Z,7.90
2018-04-07T13:51:53.762Z,7.37
2018-04-07T13:56:00.348Z,8.52
2018-04-07T14:00:07.384Z,6.47
2018-04-07T14:04:13.191Z,7.63
2018-04-07T14:08:19.061Z,8.23
2018-04-07T14:12:24.759Z,7.27
2018-04-07T14:16:30.943Z,7.97
2018-04-07T14:20:37.085Z,8.23
2018-04-07T14:24:43.521Z,7.90
2018-04-07T14:28:49.359Z,8.17
2018-04-07T14:32:54.980Z,7.70
2018-04-07T14:37:01.118Z,7.77
2018-04-07T14:41:07.129Z,8.20
2018-04-07T14:45:13.644Z,8.87
2018-04-07T14:49:20.197Z,7.97
2018-04-07T14:53:26.367Z,9.43
2018-04-07T14:57:32.063Z,11.13
2018-04-07T15:01:39.243Z,11.93
2018-04-07T15:05:45.077Z,11.10
2018-04-07T15:09:51.088Z,12.37
2018-04-07T15:13:57.440Z,10.37
2018-04-07T15:18:03.774Z,10.73
2018-04-07T15:22:10.386Z,11.30
2018-04-07T15:26:17.511Z,12.23
2018-04-07T15:30:23.901Z,11.67
2018-04-07T15:34:29.969Z,11.33
2018-04-07T15:38:42.895Z,10.87
2018-04-07T15:42:49.592Z,11.13
2018-04-07T15:46:55.383Z,10.53
2018-04-07T15:51:01.214Z,9.93
2018-04-07T15:55:07.384Z,10.00
2018-04-07T15:59:13.090Z,9.90
2018-04-07T16:03:20.890Z,9.53
2018-04-07T16:07:27.865Z,8.95
2018-04-07T16:11:33.847Z,9.15
2018-04-07T16:15:40.534Z,9.60
2018-04-07T16:19:47.036Z,9.63
2018-04-07T16:23:52.821Z,8.30
2018-04-07T16:27:59.286Z,8.53
2018-04-07T16:32:05.373Z,7.83
2018-04-07T16:36:11.420Z,7.67
2018-04-07T16:40:18.826Z,8.10
2018-04-07T16:44:25.191Z,8.40
2018-04-07T16:48:31.168Z,8.37
2018-04-07T16:52:37.024Z,8.27
2018-04-07T16:56:42.893Z,8.50
2018-04-07T17:00:48.918Z,8.20
2018-04-07T17:04:55.871Z,10.67
2018-04-07T17:09:02.677Z,9.90
2018-04-07T17:13:09.296Z,9.13
2018-04-07T17:17:16.085Z,8.63
2018-04-07T17:21:22.035Z,8.27
2018-04-07T17:25:28.013Z,7.53
2018-04-07T17:29:34.878Z,8.17
2018-04-07T17:33:40.747Z,6.20
2018-04-07T17:37:46.762Z,6.73
2018-04-07T17:41:53.063Z,7.83
2018-04-07T17:45:59.240Z,8.73
2018-04-07T17:50:05.376Z,9.33
2018-04-07T17:54:11.438Z,7.20
2018-04-07T17:58:17.421Z,7.67
2018-04-07T18:02:23.354Z,7.57
2018-04-07T18:06:31.048Z,7.43
2018-04-07T18:10:37.952Z,8.20
2018-04-07T18:14:44.710Z,8.20
2018-04-07T18:18:51.611Z,8.33
2018-04-07T18:22:58.777Z,8.20
2018-04-07T18:27:05.024Z,8.90
2018-04-07T18:31:10.900Z,8.23
2018-04-07T18:35:16.823Z,9.23
2018-04-07T18:39:23.672Z,8.97
2018-04-07T18:43:30.533Z,9.87
2018-04-07T18:47:36.574Z,9.87
2018-04-07T18:51:43.267Z,9.73
2018-04-07T18:55:49.397Z,11.02
2018-04-07T18:59:55.286Z,10.20
2018-04-07T19:04:01.123Z,11.17
2018-04-07T19:08:09.137Z,10.60
2018-04-07T19:12:15.759Z,10.65
2018-04-07T19:16:21.768Z,10.33
2018-04-07T19:20:27.748Z,10.97
2018-04-07T19:24:33.784Z,10.75
2018-04-07T19:28:39.446Z,11.07
2018-04-07T19:32:45.193Z,10.33
2018-04-07T19:36:51.018Z,10.10
2018-04-07T19:40:57.843Z,9.23
2018-04-07T19:45:05.060Z,10.10
2018-04-07T19:49:11.055Z,9.60
2018-04-07T19:53:17.113Z,10.23
2018-04-07T19:57:23.792Z,10.67
2018-04-07T20:01:30.838Z,10.00
2018-04-07T20:05:37.177Z,11.93
2018-04-07T20:09:44.583Z,11.48
2018-04-07T20:13:50.642Z,13.00
2018-04-07T20:17:57.203Z,12.47
2018-04-07T20:22:03.295Z,12.40
2018-04-07T20:26:09.130Z,11.87
2018-04-07T20:30:15.029Z,11.43
2018-04-07T20:34:20.894Z,11.57
2018-04-07T20:38:27.821Z,11.00
2018-04-07T20:42:33.783Z,11.30
2018-04-07T20:46:40.772Z,11.80
2018-04-07T20:50:46.752Z,11.23
2018-04-07T20:54:52.520Z,12.67
2018-04-07T20:58:58.232Z,12.60
2018-04-07T21:03:04.752Z,15.85
2018-04-07T21:07:10.618Z,13.27
2018-04-07T21:11:17.365Z,12.37
2018-04-07T21:15:24.053Z,12.13
2018-04-07T21:19:29.898Z,12.57
2018-04-07T21:23:35.514Z,11.70
2018-04-07T21:27:41.241Z,10.87
2018-04-07T21:31:46.849Z,10.07
2018-04-07T21:35:52.751Z,11.20
2018-04-07T21:39:58.605Z,10.13
2018-04-07T21:44:05.083Z,9.43
2018-04-07T21:48:11.296Z,10.17
2018-04-07T21:52:18.327Z,9.23
2018-04-07T21:56:24.177Z,8.90
2018-04-07T22:00:30.003Z,9.23
2018-04-07T22:04:35.750Z,9.47
2018-04-07T22:08:42.436Z,10.70
2018-04-07T22:12:51.066Z,11.23
2018-04-07T22:16:57.261Z,9.73
2018-04-07T22:21:03.070Z,7.63
2018-04-07T22:25:09.241Z,7.87
2018-04-07T22:29:14.998Z,7.30
2018-04-07T22:33:21.039Z,7.33
2018-04-07T22:37:26.988Z,6.47
2018-04-07T22:41:33.338Z,7.37
2018-04-07T22:45:39.148Z,5.97
2018-04-07T22:49:45.345Z,5.60
2018-04-07T22:53:50.987Z,6.07
2018-04-07T22:57:56.990Z,5.27
2018-04-07T23:02:02.665Z,4.30
2018-04-07T23:06:08.392Z,3.70
2018-04-07T23:10:14.283Z,3.87
2018-04-07T23:14:21.045Z,3.50
2018-04-07T23:18:27.045Z,3.90
2018-04-07T23:22:33.875Z,3.50
2018-04-07T23:26:39.700Z,3.00
2018-04-07T23:30:46.290Z,2.80
2018-04-07T23:34:52.874Z,2.83
2018-04-07T23:38:59.392Z,2.73
2018-04-07T23:43:05.131Z,2.08
2018-04-07T23:47:11.197Z,2.07
2018-04-07T23:51:17.308Z,2.10
2018-04-07T23:55:23.786Z,2.00
2018-04-07T23:59:29.411Z,2.30
